createdAt,value
2017-03-26T00:00:12.851Z,0
2017-03-26T00:01:20.939Z,0
2017-03-26T00:02:29.025Z,0
2017-03-26T00:03:37.109Z,0
2017-03-26T00:04:45.197Z,0
2017-03-26T00:05:53.282Z,0
2017-03-26T00:07:01.366Z,0
2017-03-26T00:08:09.456Z,0
2017-03-26T00:09:17.550Z,0
2017-03-26T00:10:25.677Z,0
2017-03-26T00:11:33.710Z,0
2017-03-26T00:12:41.797Z,0
2017-03-26T00:13:49.889Z,0
2017-03-26T00:14:57.982Z,0
2017-03-26T00:16:06.069Z,0
2017-03-26T00:17:14.151Z,0
2017-03-26T00:18:22.233Z,0
2017-03-26T00:19:30.321Z,0
2017-03-26T00:20:38.413Z,0
2017-03-26T00:21:46.508Z,0
2017-03-26T00:22:54.586Z,0
2017-03-26T00:24:02.678Z,0
2017-03-26T00:25:10.757Z,0
2017-03-26T00:26:18.849Z,0
2017-03-26T00:27:26.931Z,0
2017-03-26T00:28:35.020Z,0
2017-03-26T00:29:43.117Z,0
2017-03-26T00:30:51.190Z,0
2017-03-26T00:31:59.278Z,0
2017-03-26T00:33:07.365Z,0
2017-03-26T00:34:15.448Z,0
2017-03-26T00:35:23.531Z,0
2017-03-26T00:36:31.616Z,0
2017-03-26T00:37:39.706Z,0
2017-03-26T00:38:47.791Z,0
2017-03-26T00:39:55.949Z,0
2017-03-26T00:41:03.967Z,0
2017-03-26T00:42:12.052Z,0
2017-03-26T00:43:20.136Z,0
2017-03-26T00:44:28.232Z,0
2017-03-26T00:45:36.317Z,0
2017-03-26T00:46:44.404Z,0
2017-03-26T00:47:52.492Z,0
2017-03-26T00:49:00.583Z,0
2017-03-26T00:50:08.667Z,0
2017-03-26T00:51:16.751Z,0
2017-03-26T00:52:24.843Z,0
2017-03-26T00:53:32.925Z,0
2017-03-26T00:54:41.015Z,0
2017-03-26T00:55:49.101Z,0
2017-03-26T00:56:57.236Z,0
2017-03-26T00:58:05.273Z,0
2017-03-26T00:59:13.362Z,0
2017-03-26T01:00:21.448Z,0
2017-03-26T01:01:29.537Z,0
2017-03-26T01:02:37.622Z,0
2017-03-26T01:03:45.713Z,0
2017-03-26T01:04:53.799Z,0
2017-03-26T01:06:01.882Z,0
2017-03-26T01:07:09.972Z,0
2017-03-26T01:08:18.057Z,0
2017-03-26T01:09:26.142Z,0
2017-03-26T01:10:34.229Z,0
2017-03-26T01:11:42.317Z,0
2017-03-26T01:12:50.404Z,0
2017-03-26T01:13:58.503Z,0
2017-03-26T01:15:06.577Z,0
2017-03-26T01:16:14.673Z,0
2017-03-26T01:17:22.755Z,0
2017-03-26T01:18:30.841Z,0
2017-03-26T01:19:38.933Z,0
2017-03-26T01:20:47.016Z,0
2017-03-26T01:21:55.100Z,0
2017-03-26T01:23:03.191Z,0
2017-03-26T01:24:11.281Z,0
2017-03-26T01:25:19.369Z,0
2017-03-26T01:26:27.450Z,0
2017-03-26T01:27:35.542Z,0
2017-03-26T01:28:43.630Z,0
2017-03-26T01:29:51.714Z,0
2017-03-26T01:30:59.804Z,0
2017-03-26T01:32:07.889Z,0
2017-03-26T01:33:15.980Z,0
2017-03-26T01:34:24.058Z,0
2017-03-26T01:35:32.150Z,0
2017-03-26T01:36:40.236Z,0
2017-03-26T01:37:48.321Z,0
2017-03-26T01:38:56.411Z,0
2017-03-26T01:40:04.499Z,0
2017-03-26T01:41:12.581Z,0
2017-03-26T01:42:20.668Z,0
2017-03-26T01:43:28.757Z,0
2017-03-26T01:44:36.844Z,0
2017-03-26T01:45:44.925Z,0
2017-03-26T01:46:53.018Z,0
2017-03-26T01:48:01.117Z,0
2017-03-26T01:49:09.193Z,0
2017-03-26T01:50:17.281Z,0
2017-03-26T01:51:25.370Z,0
2017-03-26T01:52:33.454Z,0
2017-03-26T01:53:41.540Z,0
2017-03-26T01:54:49.630Z,0
2017-03-26T01:55:57.723Z,0
2017-03-26T01:57:05.805Z,0
2017-03-26T01:58:13.892Z,0
2017-03-26T01:59:21.984Z,0
2017-03-26T02:00:30.071Z,0
2017-03-26T02:01:38.162Z,0
2017-03-26T02:02:46.255Z,0
2017-03-26T02:03:54.339Z,0
2017-03-26T02:05:02.422Z,0
2017-03-26T02:06:10.509Z,0
2017-03-26T02:07:18.598Z,0
2017-03-26T02:08:26.690Z,0
2017-03-26T02:09:34.772Z,0
2017-03-26T02:10:42.862Z,0
2017-03-26T02:11:50.950Z,0
2017-03-26T02:12:59.039Z,0
2017-03-26T02:14:07.125Z,0
2017-03-26T02:15:15.216Z,0
2017-03-26T02:16:23.295Z,0
2017-03-26T02:17:31.381Z,0
2017-03-26T02:18:39.470Z,0
2017-03-26T02:19:47.562Z,0
2017-03-26T02:20:55.645Z,0
2017-03-26T02:22:03.733Z,0
2017-03-26T02:23:11.825Z,0
2017-03-26T02:24:19.905Z,0
2017-03-26T02:25:27.992Z,0
2017-03-26T02:26:36.081Z,0
2017-03-26T02:27:44.175Z,0
2017-03-26T02:28:52.264Z,0
2017-03-26T02:30:00.353Z,0
2017-03-26T02:31:08.439Z,0
2017-03-26T02:32:16.524Z,0
2017-03-26T02:33:24.611Z,0
2017-03-26T02:34:32.703Z,0
2017-03-26T02:35:40.791Z,0
2017-03-26T02:36:48.875Z,0
2017-03-26T02:37:56.963Z,0
2017-03-26T02:39:05.048Z,0
2017-03-26T02:40:13.130Z,0
2017-03-26T02:41:21.221Z,0
2017-03-26T02:42:29.314Z,0
2017-03-26T02:43:37.404Z,0
2017-03-26T02:44:45.492Z,0
2017-03-26T02:45:53.587Z,0
2017-03-26T02:47:01.672Z,0
2017-03-26T02:48:09.768Z,0
2017-03-26T02:49:17.840Z,0
2017-03-26T02:50:25.930Z,0
2017-03-26T02:51:34.017Z,0
2017-03-26T02:52:42.104Z,0
2017-03-26T02:53:50.192Z,0
2017-03-26T02:54:58.281Z,0
2017-03-26T02:56:06.373Z,0
2017-03-26T02:57:14.453Z,0
2017-03-26T02:58:22.542Z,0
2017-03-26T02:59:30.629Z,0
2017-03-26T03:00:38.717Z,0
2017-03-26T03:01:46.802Z,0
2017-03-26T03:02:54.890Z,0
2017-03-26T03:04:02.973Z,0
2017-03-26T03:05:11.062Z,0
2017-03-26T03:06:19.153Z,0
2017-03-26T03:07:27.240Z,0
2017-03-26T03:08:35.325Z,0
2017-03-26T03:09:43.415Z,0
2017-03-26T03:10:51.500Z,0
2017-03-26T03:11:59.586Z,0
2017-03-26T03:13:07.671Z,0
2017-03-26T03:14:15.759Z,0
2017-03-26T03:15:23.857Z,0
2017-03-26T03:16:31.928Z,0
2017-03-26T03:17:40.024Z,0
2017-03-26T03:18:48.110Z,0
2017-03-26T03:19:56.197Z,0
2017-03-26T03:21:04.292Z,0
2017-03-26T03:22:12.376Z,0
2017-03-26T03:23:20.473Z,0
2017-03-26T03:24:28.554Z,0
2017-03-26T03:25:36.643Z,0
2017-03-26T03:26:44.732Z,0
2017-03-26T03:27:52.816Z,0
2017-03-26T03:29:00.907Z,0
2017-03-26T03:30:08.994Z,0
2017-03-26T03:31:17.077Z,0
2017-03-26T03:32:25.161Z,0
2017-03-26T03:33:33.266Z,0
2017-03-26T03:34:41.355Z,0
2017-03-26T03:35:49.445Z,0
2017-03-26T03:36:57.531Z,0
2017-03-26T03:38:05.621Z,0
2017-03-26T03:39:13.709Z,0
2017-03-26T03:40:21.792Z,0
2017-03-26T03:41:29.882Z,0
2017-03-26T03:42:38.038Z,0
2017-03-26T03:43:46.051Z,0
2017-03-26T03:44:54.143Z,0
2017-03-26T03:46:02.228Z,0
2017-03-26T03:47:10.323Z,0
2017-03-26T03:48:18.402Z,0
2017-03-26T03:49:26.492Z,0
2017-03-26T03:50:34.579Z,0
2017-03-26T03:51:42.669Z,0
2017-03-26T03:52:50.756Z,0
2017-03-26T03:53:58.846Z,0
2017-03-26T03:55:06.929Z,0
2017-03-26T03:56:15.017Z,0
2017-03-26T03:57:23.108Z,0
2017-03-26T03:58:31.195Z,0
2017-03-26T03:59:39.311Z,0
2017-03-26T04:00:47.370Z,0
2017-03-26T04:01:55.457Z,0
2017-03-26T04:03:03.543Z,0
2017-03-26T04:04:11.636Z,0
2017-03-26T04:05:19.719Z,0
2017-03-26T04:06:27.801Z,0
2017-03-26T04:07:35.890Z,0
2017-03-26T04:08:43.986Z,0
2017-03-26T04:09:52.073Z,0
2017-03-26T04:11:00.162Z,0
2017-03-26T04:12:08.256Z,0
2017-03-26T04:13:16.340Z,0
2017-03-26T04:14:24.423Z,0
2017-03-26T04:15:32.508Z,0
2017-03-26T04:16:40.597Z,0
2017-03-26T04:17:48.684Z,0
2017-03-26T04:18:56.770Z,0
2017-03-26T04:20:04.856Z,0
2017-03-26T04:21:12.950Z,0
2017-03-26T04:22:21.044Z,0
2017-03-26T04:23:29.127Z,0
2017-03-26T04:24:37.218Z,0
2017-03-26T04:25:45.305Z,0
2017-03-26T04:26:53.388Z,0
2017-03-26T04:28:01.477Z,0
2017-03-26T04:29:09.567Z,0
2017-03-26T04:30:17.653Z,0
2017-03-26T04:31:25.744Z,0
2017-03-26T04:32:33.831Z,0
2017-03-26T04:33:41.925Z,0
2017-03-26T04:34:50.011Z,0
2017-03-26T04:35:58.097Z,0
2017-03-26T04:37:06.186Z,0
2017-03-26T04:38:14.274Z,0
2017-03-26T04:39:22.361Z,0
2017-03-26T04:40:30.448Z,0
2017-03-26T04:41:38.536Z,0
2017-03-26T04:42:46.628Z,0
2017-03-26T04:43:54.717Z,0
2017-03-26T04:45:02.804Z,0
2017-03-26T04:46:10.897Z,0
2017-03-26T04:47:18.981Z,0
2017-03-26T04:48:27.074Z,0
2017-03-26T04:49:35.160Z,0
2017-03-26T04:50:43.243Z,0
2017-03-26T04:51:51.336Z,0
2017-03-26T04:52:59.426Z,0
2017-03-26T04:54:07.509Z,0
2017-03-26T04:55:15.600Z,0
2017-03-26T04:56:23.683Z,0
2017-03-26T04:57:31.770Z,0
2017-03-26T04:58:39.854Z,0
2017-03-26T04:59:47.949Z,0
2017-03-26T05:00:56.035Z,0
2017-03-26T05:02:04.124Z,0
2017-03-26T05:03:12.209Z,0
2017-03-26T05:04:20.300Z,0
2017-03-26T05:05:28.382Z,0
2017-03-26T05:06:36.481Z,0
2017-03-26T05:07:44.577Z,0
2017-03-26T05:08:52.659Z,0
2017-03-26T05:10:01.105Z,0
2017-03-26T05:11:08.830Z,0
2017-03-26T05:12:16.922Z,0
2017-03-26T05:13:25.008Z,0
2017-03-26T05:14:33.093Z,0
2017-03-26T05:15:41.186Z,0
2017-03-26T05:16:49.273Z,0
2017-03-26T05:17:57.360Z,0
2017-03-26T05:19:05.445Z,0
2017-03-26T05:20:13.540Z,0
2017-03-26T05:21:21.623Z,4
2017-03-26T05:22:29.711Z,4
2017-03-26T05:23:37.807Z,4
2017-03-26T05:24:45.885Z,4
2017-03-26T05:25:53.977Z,4
2017-03-26T05:27:02.060Z,0
2017-03-26T05:28:10.150Z,0
2017-03-26T05:29:18.236Z,0
2017-03-26T05:30:26.323Z,4
2017-03-26T05:31:34.414Z,4
2017-03-26T05:32:42.504Z,4
2017-03-26T05:33:50.587Z,4
2017-03-26T05:34:58.676Z,0
2017-03-26T05:36:06.769Z,4
2017-03-26T05:37:14.853Z,4
2017-03-26T05:38:22.938Z,4
2017-03-26T05:39:31.028Z,4
2017-03-26T05:40:39.116Z,4
2017-03-26T05:41:47.199Z,4
2017-03-26T05:42:55.288Z,4
2017-03-26T05:44:03.377Z,4
2017-03-26T05:45:11.463Z,8
2017-03-26T05:46:19.552Z,4
2017-03-26T05:47:27.640Z,8
2017-03-26T05:48:35.728Z,8
2017-03-26T05:49:43.815Z,4
2017-03-26T05:50:51.902Z,4
2017-03-26T05:51:59.988Z,4
2017-03-26T05:53:08.079Z,4
2017-03-26T05:54:16.166Z,8
2017-03-26T05:55:24.256Z,8
2017-03-26T05:56:32.350Z,8
2017-03-26T05:57:40.433Z,8
2017-03-26T05:58:48.526Z,8
2017-03-26T05:59:56.612Z,8
2017-03-26T06:01:04.699Z,8
2017-03-26T06:02:12.784Z,8
2017-03-26T06:03:20.874Z,8
2017-03-26T06:04:28.963Z,8
2017-03-26T06:05:37.049Z,8
2017-03-26T06:06:45.148Z,8
2017-03-26T06:07:53.233Z,12
2017-03-26T06:09:01.320Z,12
2017-03-26T06:10:09.409Z,8
2017-03-26T06:11:17.500Z,8
2017-03-26T06:12:25.586Z,8
2017-03-26T06:13:33.679Z,8
2017-03-26T06:14:41.766Z,12
2017-03-26T06:15:49.856Z,12
2017-03-26T06:16:57.941Z,8
2017-03-26T06:18:06.061Z,8
2017-03-26T06:19:14.127Z,12
2017-03-26T06:20:22.215Z,8
2017-03-26T06:21:30.296Z,12
2017-03-26T06:22:38.392Z,12
2017-03-26T06:23:46.479Z,12
2017-03-26T06:24:54.577Z,12
2017-03-26T06:26:02.660Z,12
2017-03-26T06:27:10.757Z,8
2017-03-26T06:28:18.904Z,12
2017-03-26T06:29:26.926Z,12
2017-03-26T06:30:35.016Z,12
2017-03-26T06:31:43.106Z,12
2017-03-26T06:32:51.190Z,12
2017-03-26T06:33:59.280Z,16
2017-03-26T06:35:07.371Z,12
2017-03-26T06:36:15.456Z,16
2017-03-26T06:37:23.543Z,12
2017-03-26T06:38:31.670Z,16
2017-03-26T06:39:39.722Z,16
2017-03-26T06:40:47.805Z,16
2017-03-26T06:41:55.893Z,16
2017-03-26T06:43:03.985Z,12
2017-03-26T06:44:12.079Z,16
2017-03-26T06:45:20.227Z,16
2017-03-26T06:46:28.252Z,16
2017-03-26T06:47:36.343Z,20
2017-03-26T06:48:44.429Z,16
2017-03-26T06:49:52.517Z,20
2017-03-26T06:51:00.971Z,20
2017-03-26T06:52:08.698Z,20
2017-03-26T06:53:16.776Z,20
2017-03-26T06:54:24.864Z,20
2017-03-26T06:55:32.957Z,20
2017-03-26T06:56:41.039Z,24
2017-03-26T06:57:49.129Z,20
2017-03-26T06:58:57.216Z,20
2017-03-26T07:00:05.303Z,20
2017-03-26T07:01:13.387Z,20
2017-03-26T07:02:21.478Z,20
2017-03-26T07:03:29.724Z,20
2017-03-26T07:04:37.649Z,20
2017-03-26T07:05:45.744Z,24
2017-03-26T07:06:53.830Z,24
2017-03-26T07:08:01.911Z,28
2017-03-26T07:09:10.005Z,24
2017-03-26T07:10:18.094Z,24
2017-03-26T07:11:26.183Z,24
2017-03-26T07:12:34.270Z,24
2017-03-26T07:13:42.356Z,20
2017-03-26T07:14:50.442Z,20
2017-03-26T07:15:58.537Z,24
2017-03-26T07:17:06.847Z,24
2017-03-26T07:18:14.713Z,24
2017-03-26T07:19:22.799Z,28
2017-03-26T07:20:30.891Z,28
2017-03-26T07:21:38.974Z,28
2017-03-26T07:22:47.063Z,28
2017-03-26T07:23:55.148Z,28
2017-03-26T07:25:03.232Z,28
2017-03-26T07:26:11.324Z,28
2017-03-26T07:27:19.411Z,32
2017-03-26T07:28:27.498Z,32
2017-03-26T07:29:35.585Z,32
2017-03-26T07:30:43.673Z,32
2017-03-26T07:31:51.757Z,36
2017-03-26T07:33:00.409Z,36
2017-03-26T07:34:07.934Z,36
2017-03-26T07:35:16.022Z,32
2017-03-26T07:36:24.493Z,32
2017-03-26T07:37:32.248Z,36
2017-03-26T07:38:40.285Z,36
2017-03-26T07:39:48.367Z,36
2017-03-26T07:40:56.457Z,36
2017-03-26T07:42:04.599Z,36
2017-03-26T07:43:12.633Z,36
2017-03-26T07:44:20.724Z,40
2017-03-26T07:45:28.813Z,36
2017-03-26T07:46:36.902Z,36
2017-03-26T07:47:45.160Z,40
2017-03-26T07:48:53.072Z,40
2017-03-26T07:50:01.356Z,36
2017-03-26T07:51:09.257Z,40
2017-03-26T07:52:17.946Z,52
2017-03-26T07:53:25.431Z,48
2017-03-26T07:54:33.513Z,40
2017-03-26T07:55:41.597Z,36
2017-03-26T07:56:49.681Z,48
2017-03-26T07:57:57.773Z,44
2017-03-26T07:59:05.855Z,32
2017-03-26T08:00:13.940Z,36
2017-03-26T08:01:22.029Z,44
2017-03-26T08:02:30.119Z,44
2017-03-26T08:03:38.207Z,36
2017-03-26T08:04:46.424Z,52
2017-03-26T08:05:54.381Z,48
2017-03-26T08:07:02.466Z,44
2017-03-26T08:08:10.553Z,52
2017-03-26T08:09:19.016Z,56
2017-03-26T08:10:26.737Z,52
2017-03-26T08:11:34.826Z,56
2017-03-26T08:12:42.914Z,48
2017-03-26T08:13:51.230Z,56
2017-03-26T08:14:59.086Z,56
2017-03-26T08:16:07.169Z,60
2017-03-26T08:17:15.260Z,56
2017-03-26T08:18:23.341Z,48
2017-03-26T08:19:31.428Z,40
2017-03-26T08:20:39.520Z,40
2017-03-26T08:21:47.608Z,44
2017-03-26T08:22:55.694Z,44
2017-03-26T08:24:03.783Z,40
2017-03-26T08:25:11.868Z,40
2017-03-26T08:26:19.954Z,48
2017-03-26T08:27:28.039Z,48
2017-03-26T08:28:36.133Z,48
2017-03-26T08:29:44.217Z,48
2017-03-26T08:30:52.298Z,48
2017-03-26T08:32:00.384Z,48
2017-03-26T08:33:08.476Z,52
2017-03-26T08:34:16.562Z,52
2017-03-26T08:35:24.645Z,52
2017-03-26T08:36:32.748Z,52
2017-03-26T08:37:40.825Z,52
2017-03-26T08:38:48.912Z,56
2017-03-26T08:39:56.993Z,52
2017-03-26T08:41:05.083Z,52
2017-03-26T08:42:13.171Z,52
2017-03-26T08:43:21.271Z,56
2017-03-26T08:44:29.351Z,56
2017-03-26T08:45:37.439Z,52
2017-03-26T08:46:45.524Z,52
2017-03-26T08:47:53.615Z,60
2017-03-26T08:49:01.699Z,52
2017-03-26T08:50:09.804Z,52
2017-03-26T08:51:17.867Z,48
2017-03-26T08:52:25.955Z,52
2017-03-26T08:53:34.044Z,60
2017-03-26T08:54:42.129Z,60
2017-03-26T08:55:50.213Z,60
2017-03-26T08:56:58.318Z,52.00
2017-03-26T08:58:06.389Z,52
2017-03-26T08:59:14.475Z,56
2017-03-26T09:00:22.562Z,56
2017-03-26T09:01:30.691Z,52
2017-03-26T09:02:38.736Z,48
2017-03-26T09:03:46.823Z,48
2017-03-26T09:04:54.908Z,48
2017-03-26T09:06:02.994Z,48
2017-03-26T09:07:11.083Z,48
2017-03-26T09:08:19.172Z,56
2017-03-26T09:09:27.256Z,48
2017-03-26T09:10:35.344Z,52
2017-03-26T09:11:43.435Z,44
2017-03-26T09:12:51.568Z,44
2017-03-26T09:13:59.703Z,52
2017-03-26T09:15:07.686Z,48
2017-03-26T09:16:15.780Z,44
2017-03-26T09:17:23.864Z,44
2017-03-26T09:18:31.955Z,48
2017-03-26T09:19:40.044Z,44
2017-03-26T09:20:48.138Z,40
2017-03-26T09:21:56.225Z,44
2017-03-26T09:23:04.307Z,48
2017-03-26T09:24:12.395Z,44
2017-03-26T09:25:20.482Z,40
2017-03-26T09:26:28.567Z,40
2017-03-26T09:27:36.657Z,40
2017-03-26T09:28:44.740Z,44
2017-03-26T09:29:52.824Z,40
2017-03-26T09:31:00.965Z,40
2017-03-26T09:32:09.000Z,44
2017-03-26T09:33:17.091Z,48
2017-03-26T09:34:25.175Z,48
2017-03-26T09:35:33.274Z,52
2017-03-26T09:36:41.354Z,48
2017-03-26T09:37:49.439Z,60
2017-03-26T09:38:57.521Z,64
2017-03-26T09:40:05.612Z,68
2017-03-26T09:41:13.697Z,68
2017-03-26T09:42:21.778Z,68
2017-03-26T09:43:29.872Z,72
2017-03-26T09:44:37.957Z,64
2017-03-26T09:45:46.039Z,60
2017-03-26T09:46:54.134Z,68
2017-03-26T09:48:02.253Z,80
2017-03-26T09:49:10.312Z,80
2017-03-26T09:50:18.394Z,80
2017-03-26T09:51:26.484Z,76
2017-03-26T09:52:34.569Z,76
2017-03-26T09:53:42.658Z,76
2017-03-26T09:54:50.744Z,76
2017-03-26T09:55:58.833Z,76
2017-03-26T09:57:06.921Z,76
2017-03-26T09:58:15.003Z,76
2017-03-26T09:59:23.093Z,68
2017-03-26T10:00:31.184Z,68
2017-03-26T10:01:39.266Z,64
2017-03-26T10:02:47.351Z,64
2017-03-26T10:03:55.440Z,60
2017-03-26T10:05:03.526Z,64
2017-03-26T10:06:11.609Z,64
2017-03-26T10:07:19.697Z,64
2017-03-26T10:08:27.790Z,64
2017-03-26T10:09:35.868Z,64
2017-03-26T10:10:44.651Z,64
2017-03-26T10:11:52.043Z,60
2017-03-26T10:13:00.129Z,60
2017-03-26T10:14:08.215Z,56
2017-03-26T10:15:16.304Z,56
2017-03-26T10:16:24.394Z,56
2017-03-26T10:17:32.472Z,56
2017-03-26T10:18:40.562Z,60
2017-03-26T10:19:48.646Z,60
2017-03-26T10:20:56.730Z,60
2017-03-26T10:22:04.816Z,60
2017-03-26T10:23:12.905Z,60
2017-03-26T10:24:20.996Z,64
2017-03-26T10:25:29.082Z,60
2017-03-26T10:26:37.170Z,60
2017-03-26T10:27:45.264Z,60
2017-03-26T10:28:53.336Z,64
2017-03-26T10:30:01.423Z,60
2017-03-26T10:31:09.511Z,64
2017-03-26T10:32:17.598Z,60
2017-03-26T10:33:25.681Z,60
2017-03-26T10:34:33.772Z,52
2017-03-26T10:35:41.858Z,52
2017-03-26T10:36:49.951Z,52
2017-03-26T10:37:58.035Z,48
2017-03-26T10:39:06.133Z,48
2017-03-26T10:40:14.209Z,48
2017-03-26T10:41:22.292Z,44
2017-03-26T10:42:30.381Z,44
2017-03-26T10:43:38.468Z,40
2017-03-26T10:44:46.549Z,44
2017-03-26T10:45:54.635Z,44
2017-03-26T10:47:02.726Z,48
2017-03-26T10:48:10.812Z,44
2017-03-26T10:49:18.897Z,44
2017-03-26T10:50:26.986Z,44
2017-03-26T10:51:35.069Z,44
2017-03-26T10:52:43.155Z,48
2017-03-26T10:53:51.238Z,56
2017-03-26T10:54:59.332Z,56
2017-03-26T10:56:07.417Z,52
2017-03-26T10:57:15.502Z,56
2017-03-26T10:58:23.595Z,56
2017-03-26T10:59:31.678Z,60
2017-03-26T11:00:39.768Z,56
2017-03-26T11:01:47.849Z,48
2017-03-26T11:02:55.945Z,48
2017-03-26T11:04:04.038Z,48
2017-03-26T11:05:12.117Z,56
2017-03-26T11:06:20.206Z,52
2017-03-26T11:07:28.295Z,60
2017-03-26T11:08:36.378Z,52
2017-03-26T11:09:44.465Z,52
2017-03-26T11:10:52.554Z,44
2017-03-26T11:12:00.638Z,48
2017-03-26T11:13:08.731Z,40
2017-03-26T11:14:16.816Z,40
2017-03-26T11:15:24.904Z,40
2017-03-26T11:16:32.985Z,40
2017-03-26T11:17:41.076Z,36
2017-03-26T11:18:49.165Z,40
2017-03-26T11:19:57.245Z,36
2017-03-26T11:21:05.332Z,44
2017-03-26T11:22:13.429Z,44
2017-03-26T11:23:21.511Z,48
2017-03-26T11:24:29.598Z,48
2017-03-26T11:25:37.682Z,52
2017-03-26T11:26:45.768Z,52
2017-03-26T11:27:53.860Z,44
2017-03-26T11:29:01.941Z,48
2017-03-26T11:30:10.036Z,48
2017-03-26T11:31:18.121Z,52
2017-03-26T11:32:26.329Z,52
2017-03-26T11:33:34.292Z,44
2017-03-26T11:34:42.386Z,52
2017-03-26T11:35:50.540Z,48
2017-03-26T11:36:58.558Z,52
2017-03-26T11:38:06.644Z,56
2017-03-26T11:39:14.732Z,44
2017-03-26T11:40:22.816Z,44
2017-03-26T11:41:30.904Z,52
2017-03-26T11:42:38.998Z,44
2017-03-26T11:43:47.074Z,48
2017-03-26T11:44:55.158Z,48
2017-03-26T11:46:03.246Z,48
2017-03-26T11:47:11.333Z,56
2017-03-26T11:48:19.418Z,44
2017-03-26T11:49:27.504Z,44
2017-03-26T11:50:35.591Z,52
2017-03-26T11:51:43.677Z,56
2017-03-26T11:52:51.761Z,48
2017-03-26T11:53:59.851Z,52
2017-03-26T11:55:07.939Z,44
2017-03-26T11:56:16.036Z,52
2017-03-26T11:57:24.117Z,52
2017-03-26T11:58:32.546Z,52
2017-03-26T11:59:40.643Z,52
2017-03-26T12:00:48.666Z,52
2017-03-26T12:01:56.601Z,52
2017-03-26T12:03:04.535Z,48
2017-03-26T12:04:12.618Z,48
2017-03-26T12:05:20.709Z,48
2017-03-26T12:06:28.798Z,52
2017-03-26T12:07:36.880Z,48
2017-03-26T12:08:44.962Z,48
2017-03-26T12:09:53.054Z,44
2017-03-26T12:11:01.134Z,44
2017-03-26T12:12:09.222Z,48
2017-03-26T12:13:17.314Z,48
2017-03-26T12:14:25.398Z,48
2017-03-26T12:15:33.489Z,48
2017-03-26T12:16:41.642Z,44
2017-03-26T12:17:49.662Z,48
2017-03-26T12:18:57.744Z,48
2017-03-26T12:20:05.828Z,44
2017-03-26T12:21:13.925Z,48
2017-03-26T12:22:22.005Z,48
2017-03-26T12:23:30.095Z,48
2017-03-26T12:24:38.177Z,44
2017-03-26T12:25:46.264Z,44
2017-03-26T12:26:54.351Z,44
2017-03-26T12:28:02.438Z,48
2017-03-26T12:29:10.530Z,48
2017-03-26T12:30:18.616Z,44
2017-03-26T12:31:26.703Z,48
2017-03-26T12:32:34.789Z,44
2017-03-26T12:33:42.898Z,40
2017-03-26T12:34:50.962Z,44
2017-03-26T12:35:59.043Z,44
2017-03-26T12:37:07.135Z,44
2017-03-26T12:38:15.224Z,40
2017-03-26T12:39:23.308Z,44
2017-03-26T12:40:32.047Z,44
2017-03-26T12:41:39.709Z,44
2017-03-26T12:42:47.566Z,44
2017-03-26T12:43:55.661Z,40
2017-03-26T12:45:03.745Z,44
2017-03-26T12:46:11.828Z,44
2017-03-26T12:47:20.408Z,44
2017-03-26T12:48:28.002Z,44
2017-03-26T12:49:36.086Z,44
2017-03-26T12:50:44.171Z,44
2017-03-26T12:51:52.257Z,40
2017-03-26T12:53:00.347Z,40
2017-03-26T12:54:08.430Z,40
2017-03-26T12:55:16.564Z,40
2017-03-26T12:56:24.601Z,40
2017-03-26T12:57:32.689Z,40
2017-03-26T12:58:40.772Z,40
2017-03-26T12:59:48.857Z,40
2017-03-26T13:00:56.942Z,44
2017-03-26T13:02:05.024Z,44
2017-03-26T13:03:13.111Z,40
2017-03-26T13:04:21.200Z,40
2017-03-26T13:05:29.283Z,40
2017-03-26T13:06:37.365Z,40
2017-03-26T13:07:45.466Z,40
2017-03-26T13:08:53.539Z,40
2017-03-26T13:10:01.625Z,40
2017-03-26T13:11:09.712Z,40
2017-03-26T13:12:17.797Z,40
2017-03-26T13:13:25.885Z,40
2017-03-26T13:14:33.971Z,40
2017-03-26T13:15:42.055Z,40
2017-03-26T13:16:50.146Z,40
2017-03-26T13:17:58.226Z,28
2017-03-26T13:19:06.314Z,32
2017-03-26T13:20:14.401Z,36
2017-03-26T13:21:22.487Z,36
2017-03-26T13:22:30.568Z,28
2017-03-26T13:23:38.654Z,24
2017-03-26T13:24:46.748Z,44
2017-03-26T13:25:54.829Z,44
2017-03-26T13:27:02.911Z,44
2017-03-26T13:28:10.999Z,44
2017-03-26T13:29:19.088Z,44
2017-03-26T13:30:27.168Z,44
2017-03-26T13:31:35.259Z,48
2017-03-26T13:32:43.347Z,52
2017-03-26T13:33:51.432Z,32
2017-03-26T13:34:59.515Z,32
2017-03-26T13:36:07.605Z,28
2017-03-26T13:37:15.690Z,28
2017-03-26T13:38:23.777Z,36
2017-03-26T13:39:31.863Z,48
2017-03-26T13:40:39.947Z,40
2017-03-26T13:41:48.029Z,32
2017-03-26T13:42:56.115Z,40
2017-03-26T13:44:04.210Z,28
2017-03-26T13:45:12.293Z,28
2017-03-26T13:46:20.376Z,28
2017-03-26T13:47:28.473Z,28
2017-03-26T13:48:36.553Z,24
2017-03-26T13:49:44.640Z,24
2017-03-26T13:50:52.724Z,24
2017-03-26T13:52:00.811Z,24
2017-03-26T13:53:08.899Z,48
2017-03-26T13:54:16.982Z,48
2017-03-26T13:55:25.073Z,52
2017-03-26T13:56:33.160Z,52
2017-03-26T13:57:41.240Z,56
2017-03-26T13:58:49.329Z,56
2017-03-26T13:59:57.419Z,56
2017-03-26T14:01:05.501Z,52
2017-03-26T14:02:13.586Z,52
2017-03-26T14:03:21.671Z,48
2017-03-26T14:04:29.756Z,48
2017-03-26T14:05:37.839Z,52
2017-03-26T14:06:45.932Z,60
2017-03-26T14:07:54.021Z,60
2017-03-26T14:09:02.106Z,56
2017-03-26T14:10:10.189Z,52
2017-03-26T14:11:18.281Z,48
2017-03-26T14:12:26.437Z,52
2017-03-26T14:13:34.497Z,48
2017-03-26T14:14:42.551Z,52
2017-03-26T14:15:50.686Z,40
2017-03-26T14:16:58.723Z,36
2017-03-26T14:18:06.804Z,36
2017-03-26T14:19:14.893Z,52
2017-03-26T14:20:22.978Z,48
2017-03-26T14:21:31.061Z,36
2017-03-26T14:22:39.165Z,52
2017-03-26T14:23:47.238Z,56
2017-03-26T14:24:55.322Z,48
2017-03-26T14:26:03.404Z,52
2017-03-26T14:27:11.492Z,56
2017-03-26T14:28:19.580Z,48
2017-03-26T14:29:27.668Z,36
2017-03-26T14:30:35.752Z,36
2017-03-26T14:31:43.843Z,44
2017-03-26T14:32:51.933Z,48
2017-03-26T14:34:00.013Z,52
2017-03-26T14:35:08.108Z,56
2017-03-26T14:36:16.201Z,56
2017-03-26T14:37:24.285Z,52
2017-03-26T14:38:32.377Z,60
2017-03-26T14:39:40.454Z,60
2017-03-26T14:40:48.541Z,64
2017-03-26T14:41:56.623Z,64
2017-03-26T14:43:04.713Z,64
2017-03-26T14:44:12.797Z,56
2017-03-26T14:45:20.880Z,56
2017-03-26T14:46:28.969Z,56
2017-03-26T14:47:37.055Z,56
2017-03-26T14:48:45.666Z,60
2017-03-26T14:49:53.927Z,48
2017-03-26T14:51:01.975Z,48
2017-03-26T14:52:09.777Z,52
2017-03-26T14:53:17.796Z,32
2017-03-26T14:54:25.573Z,24
2017-03-26T14:55:33.665Z,24
2017-03-26T14:56:41.745Z,28
2017-03-26T14:57:49.826Z,24
2017-03-26T14:58:57.938Z,52
2017-03-26T15:00:06.010Z,48
2017-03-26T15:01:14.096Z,40
2017-03-26T15:02:22.257Z,36
2017-03-26T15:03:30.265Z,32
2017-03-26T15:04:38.353Z,52
2017-03-26T15:05:46.438Z,48
2017-03-26T15:06:54.527Z,48
2017-03-26T15:08:02.611Z,44
2017-03-26T15:09:10.693Z,44
2017-03-26T15:10:18.785Z,36
2017-03-26T15:11:26.875Z,40
2017-03-26T15:12:34.958Z,44
2017-03-26T15:13:43.042Z,44
2017-03-26T15:14:51.136Z,40
2017-03-26T15:15:59.216Z,40
2017-03-26T15:17:07.298Z,40
2017-03-26T15:18:15.393Z,40
2017-03-26T15:19:23.518Z,32
2017-03-26T15:20:31.554Z,28
2017-03-26T15:21:39.641Z,28
2017-03-26T15:22:47.729Z,32
2017-03-26T15:23:55.815Z,36
2017-03-26T15:25:03.896Z,32
2017-03-26T15:26:11.987Z,32
2017-03-26T15:27:20.072Z,32
2017-03-26T15:28:28.154Z,40
2017-03-26T15:29:36.239Z,36
2017-03-26T15:30:44.332Z,36
2017-03-26T15:31:52.418Z,44
2017-03-26T15:33:00.503Z,36
2017-03-26T15:34:08.596Z,28
2017-03-26T15:35:16.681Z,28
2017-03-26T15:36:24.851Z,24
2017-03-26T15:37:32.855Z,24
2017-03-26T15:38:40.938Z,24
2017-03-26T15:39:49.022Z,24
2017-03-26T15:40:57.113Z,20
2017-03-26T15:42:05.205Z,20
2017-03-26T15:43:13.290Z,20
2017-03-26T15:44:21.376Z,24
2017-03-26T15:45:29.467Z,24
2017-03-26T15:46:37.556Z,20
2017-03-26T15:47:45.640Z,24
2017-03-26T15:48:53.725Z,20
2017-03-26T15:50:01.811Z,20
2017-03-26T15:51:09.906Z,20
2017-03-26T15:52:17.988Z,20
2017-03-26T15:53:26.082Z,24
2017-03-26T15:54:34.172Z,24
2017-03-26T15:55:42.253Z,32
2017-03-26T15:56:50.338Z,24
2017-03-26T15:57:58.434Z,20
2017-03-26T15:59:06.520Z,20
2017-03-26T16:00:14.606Z,16
2017-03-26T16:01:22.695Z,20
2017-03-26T16:02:30.782Z,16
2017-03-26T16:03:38.872Z,16
2017-03-26T16:04:46.961Z,16
2017-03-26T16:05:55.044Z,20
2017-03-26T16:07:03.126Z,20
2017-03-26T16:08:11.211Z,20
2017-03-26T16:09:19.303Z,16
2017-03-26T16:10:27.387Z,16
2017-03-26T16:11:35.473Z,20
2017-03-26T16:12:43.561Z,20
2017-03-26T16:13:51.647Z,16
2017-03-26T16:14:59.735Z,16
2017-03-26T16:16:07.818Z,16
2017-03-26T16:17:15.905Z,16
2017-03-26T16:18:23.990Z,12
2017-03-26T16:19:32.076Z,12
2017-03-26T16:20:40.158Z,12
2017-03-26T16:21:48.255Z,12
2017-03-26T16:22:56.338Z,12
2017-03-26T16:24:04.420Z,8